createdAt,value
2023-05-07T00:01:35.979Z,1009.3
2023-05-07T00:07:57.031Z,1009.3
2023-05-07T00:14:19.022Z,1009.22
2023-05-07T00:20:39.009Z,1009.28
2023-05-07T00:27:01.984Z,1009.31
2023-05-07T00:33:22.119Z,1009.28
2023-05-07T00:39:45.051Z,1009.22
2023-05-07T00:46:05.112Z,1009.24
2023-05-07T00:52:28.084Z,1009.2
2023-05-07T00:58:48.006Z,1009.18
2023-05-07T01:05:11.044Z,1009.14
2023-05-07T01:11:31.088Z,1009.16
2023-05-07T01:17:54.031Z,1009.12
2023-05-07T01:24:13.970Z,1009.1
2023-05-07T01:30:37.010Z,1009.06
2023-05-07T01:36:56.987Z,1009
2023-05-07T01:43:19.988Z,1008.98
2023-05-07T01:49:40.180Z,1008.96
2023-05-07T01:56:03.009Z,1008.98
2023-05-07T02:02:23.050Z,1008.94
2023-05-07T02:08:46.088Z,1008.92
2023-05-07T02:15:05.981Z,1008.92
2023-05-07T02:21:31.080Z,1008.9
2023-05-07T02:27:49.137Z,1008.9
2023-05-07T02:34:12.029Z,1008.9
2023-05-07T02:40:31.995Z,1008.9
2023-05-07T02:46:55.013Z,1008.92
2023-05-07T02:53:14.972Z,1008.92
2023-05-07T02:59:38.016Z,1008.92
2023-05-07T03:05:58.110Z,1008.88
2023-05-07T03:12:21.044Z,1008.86
2023-05-07T03:34:48.062Z,1008.84
2023-05-07T03:41:11.007Z,1008.79
2023-05-07T03:47:30.982Z,1008.81
2023-05-07T03:53:54.186Z,1008.81
2023-05-07T04:00:14.111Z,1008.81
2023-05-07T04:06:37.057Z,1008.84
2023-05-07T04:12:57.038Z,1008.9
2023-05-07T04:19:20.018Z,1008.96
2023-05-07T04:25:40.030Z,1009.02
2023-05-07T04:32:03.055Z,1009
2023-05-07T04:38:22.976Z,1009
2023-05-07T04:44:46.019Z,1009.04
2023-05-07T04:51:05.993Z,1009.04
2023-05-07T04:57:28.975Z,1009.06
2023-05-07T05:03:49.138Z,1009.06
2023-05-07T05:10:12.300Z,1008.98
2023-05-07T05:16:32.052Z,1008.94
2023-05-07T05:22:55.017Z,1009.04
2023-05-07T05:29:15.078Z,1009.1
2023-05-07T05:35:38.038Z,1009.14
2023-05-07T05:41:57.977Z,1009.14
2023-05-07T05:48:21.166Z,1009.14
2023-05-07T05:54:41.039Z,1009.2
2023-05-07T06:01:03.985Z,1009.22
2023-05-07T06:07:24.136Z,1009.22
2023-05-07T06:13:46.984Z,1009.14
2023-05-07T06:20:07.248Z,1009.22
2023-05-07T06:26:30.095Z,1009.3
2023-05-07T06:32:50.058Z,1009.3
2023-05-07T06:39:13.051Z,1009.37
2023-05-07T06:45:33.109Z,1009.39
2023-05-07T06:51:55.988Z,1009.43
2023-05-07T06:58:16.013Z,1009.47
2023-05-07T07:04:39.735Z,1009.51
2023-05-07T07:10:58.996Z,1009.47
2023-05-07T07:17:22.005Z,1009.51
2023-05-07T07:23:42.157Z,1009.49
2023-05-07T07:30:05.009Z,1009.51
2023-05-07T07:36:32.046Z,1009.53
2023-05-07T07:42:48.054Z,1009.55
2023-05-07T07:49:08.001Z,1009.59
2023-05-07T07:55:30.983Z,1009.61
2023-05-07T08:01:52.852Z,1009.67
2023-05-07T08:08:14.031Z,1009.71
2023-05-07T08:14:34.061Z,1009.75
2023-05-07T08:20:57.310Z,1009.77
2023-05-07T08:27:17.013Z,1009.78
2023-05-07T08:49:30.095Z,1009.77
2023-05-07T08:55:52.981Z,1009.78
2023-05-07T09:02:13.046Z,1009.77
2023-05-07T09:08:36.084Z,1009.78
2023-05-07T09:14:56.010Z,1009.75
2023-05-07T09:21:19.007Z,1009.73
2023-05-07T09:27:39.090Z,1009.69
2023-05-07T09:34:02.011Z,1009.61
2023-05-07T09:40:21.979Z,1009.61
2023-05-07T09:46:45.120Z,1009.61
2023-05-07T09:53:04.996Z,1009.61
2023-05-07T09:59:29.795Z,1009.57
2023-05-07T10:05:48.066Z,1009.55
2023-05-07T10:12:11.009Z,1009.55
2023-05-07T10:18:31.067Z,1009.53
2023-05-07T10:24:54.022Z,1009.49
2023-05-07T10:31:14.086Z,1009.49
2023-05-07T10:37:36.996Z,1009.49
2023-05-07T10:43:57.240Z,1009.47
2023-05-07T10:50:20.011Z,1009.49
2023-05-07T10:56:40.037Z,1009.43
2023-05-07T11:03:03.114Z,1009.41
2023-05-07T11:09:22.984Z,1009.37
2023-05-07T11:15:45.989Z,1009.31
2023-05-07T11:28:28.983Z,1009.22
2023-05-07T11:34:48.995Z,1009.14
2023-05-07T11:41:12.019Z,1009.1
2023-05-07T11:47:32.005Z,1009.1
2023-05-07T11:53:55.001Z,1009.1
2023-05-07T12:00:15.033Z,1009.08
2023-05-07T12:06:40.994Z,1009.06
2023-05-07T12:13:00.991Z,1009.08
2023-05-07T22:19:55.012Z,1012.77
2023-05-07T22:26:15.044Z,1012.75
2023-05-07T22:32:37.999Z,1012.79
2023-05-07T22:38:58.026Z,1012.85
2023-05-07T22:45:20.986Z,1012.9
2023-05-07T22:51:40.984Z,1012.89
2023-05-07T22:58:04.007Z,1012.92
2023-05-07T23:04:23.983Z,1012.87
2023-05-07T23:10:46.994Z,1012.87
2023-05-07T23:17:07.076Z,1012.83
2023-05-07T23:23:29.972Z,1012.83
2023-05-07T23:29:49.989Z,1012.85
2023-05-07T23:36:13.050Z,1012.89
2023-05-07T23:42:32.970Z,1012.87
2023-05-07T23:48:55.988Z,1012.9
2023-05-07T23:55:16.017Z,1012.9
